Time;durP1;ratioP1;P1;durP2;ratioP2;P2;SDS_P1;SDS_P2;PMS_P1;PMS_P2;Temp;Humidity;BMP_temperature;BMP_pressure;BME280_temperature;BME280_humidity;BME280_pressure;Samples;Min_cycle;Max_cycle;Signal;HPM_P1;HPM_P2
2023/02/03 05:46:05;;;;;;;51.10;29.30;;;;;;;-1.69;100.00;99839.33;108252;1274;23303;-43
2023/02/03 05:48:33;;;;;;;55.80;31.60;;;;;;;-1.63;100.00;99834.46;112135;1259;23088;-36
2023/02/03 05:50:59;;;;;;;55.20;32.80;;;;;;;-1.55;100.00;99834.78;112881;1248;22371;-36
2023/02/03 05:58:03;;;;;;;59.00;33.90;;;;;;;-1.30;100.00;99833.02;111215;1249;22163;-45
2023/02/03 06:00:30;;;;;;;64.00;36.10;;;;;;;-1.22;100.00;99831.80;111855;1249;22475;-44
2023/02/03 08:19:17;;;;;;;23.70;15.70;;;;;;;1.49;100.00;99865.88;105669;1304;557618;-43
2023/02/03 08:21:50;;;;;;;21.50;13.50;;;;;;;1.68;100.00;99866.27;108567;1291;169120;-45
2023/02/03 08:24:22;;;;;;;21.30;14.30;;;;;;;1.75;100.00;99867.33;106978;1295;22556;-39
2023/02/03 08:26:53;;;;;;;21.60;12.40;;;;;;;1.79;100.00;99869.16;108195;1287;23758;-47
2023/02/03 08:29:22;;;;;;;21.50;13.60;;;;;;;1.82;100.00;99865.13;107434;1289;22675;-47
2023/02/03 08:31:53;;;;;;;20.10;13.10;;;;;;;1.85;100.00;99864.35;108946;1279;23493;-45
2023/02/03 08:34:23;;;;;;;23.20;14.50;;;;;;;1.89;100.00;99870.81;108927;1280;22808;-38
2023/02/03 08:36:52;;;;;;;22.40;13.50;;;;;;;1.92;100.00;99869.52;108926;1281;22435;-36
2023/02/03 08:39:20;;;;;;;21.90;13.00;;;;;;;1.97;100.00;99866.90;109056;1280;22697;-37
2023/02/03 08:41:48;;;;;;;20.60;13.70;;;;;;;2.03;100.00;99867.94;109184;1280;22799;-36
2023/02/03 08:44:18;;;;;;;18.80;12.50;;;;;;;2.12;100.00;99864.59;109429;1286;22986;-36
2023/02/03 08:46:50;;;;;;;21.40;13.50;;;;;;;2.23;100.00;99866.60;109392;1280;22312;-36
2023/02/03 08:49:18;;;;;;;18.10;12.20;;;;;;;2.30;100.00;99860.40;109276;1280;23152;-36
2023/02/03 08:51:47;;;;;;;22.30;13.70;;;;;;;2.40;100.00;99861.16;109426;1286;22549;-38
2023/02/03 08:54:15;;;;;;;19.40;12.50;;;;;;;2.51;100.00;99858.34;109419;1280;22346;-38
2023/02/03 08:56:43;;;;;;;22.30;14.10;;;;;;;2.58;100.00;99859.41;109561;1280;22993;-36
2023/02/03 08:59:12;;;;;;;17.80;11.50;;;;;;;2.63;100.00;99855.40;109213;1279;22539;-38
2023/02/03 09:01:43;;;;;;;22.60;12.80;;;;;;;2.65;100.00;99853.89;109147;1280;25355;-39
2023/02/03 09:04:12;;;;;;;20.80;13.10;;;;;;;2.66;100.00;99854.95;109208;1283;22272;-37
2023/02/03 09:06:40;;;;;;;19.60;12.80;;;;;;;2.69;100.00;99854.85;109596;1279;23258;-39
2023/02/03 09:09:09;;;;;;;20.90;12.80;;;;;;;2.71;99.82;99857.13;109503;1279;22432;-39
2023/02/03 09:11:39;;;;;;;18.10;11.90;;;;;;;2.72;99.40;99860.25;109523;1286;23076;-38
2023/02/03 09:14:07;;;;;;;23.10;13.80;;;;;;;2.74;99.44;99861.52;109553;1280;22379;-37
2023/02/03 09:16:35;;;;;;;21.40;12.20;;;;;;;2.78;99.45;99860.91;109653;1286;22217;-38
2023/02/03 09:19:04;;;;;;;18.70;12.30;;;;;;;2.81;98.83;99858.75;109614;1279;22435;-39
2023/02/03 09:21:32;;;;;;;22.00;12.50;;;;;;;2.79;98.91;99856.13;109387;1280;22661;-37
2023/02/03 09:24:08;;;;;;;25.80;13.20;;;;;;;2.79;99.11;99855.29;109200;1286;22510;-39
2023/02/03 09:26:36;;;;;;;20.40;10.80;;;;;;;2.83;98.96;99852.29;108428;1279;22569;-37
2023/02/03 09:29:06;;;;;;;13.70;10.30;;;;;;;2.86;98.60;99850.77;109444;1280;22341;-38
2023/02/03 09:31:34;;;;;;;29.30;15.70;;;;;;;2.84;98.17;99847.98;109476;1280;22397;-38
2023/02/03 09:34:02;;;;;;;22.40;13.20;;;;;;;2.83;98.14;99851.24;109522;1280;22508;-37
2023/02/03 09:36:31;;;;;;;23.80;12.70;;;;;;;2.87;98.49;99849.96;109492;1280;22424;-38
2023/02/03 09:39:00;;;;;;;16.60;11.20;;;;;;;2.92;98.32;99845.60;109523;1283;23235;-38
2023/02/03 09:41:33;;;;;;;25.60;12.00;;;;;;;2.95;98.19;99843.40;108397;1280;22552;-38
2023/02/03 09:44:09;;;;;;;17.00;11.30;;;;;;;2.96;98.02;99843.95;109464;1283;22480;-38
2023/02/03 09:46:46;;;;;;;16.50;11.10;;;;;;;2.95;97.72;99839.61;109554;1280;23049;-38
2023/02/03 09:49:23;;;;;;;20.70;11.80;;;;;;;2.93;97.77;99834.06;109563;1286;22381;-38
2023/02/03 09:52:07;;;;;;;19.00;11.30;;;;;;;2.96;98.08;99832.42;109393;1280;22763;-38
2023/02/03 09:54:44;;;;;;;21.70;11.10;;;;;;;3.02;98.04;99828.92;109455;1278;22399;-38
2023/02/03 09:57:23;;;;;;;17.50;10.90;;;;;;;3.07;98.22;99824.75;109345;1280;22486;-38
2023/02/03 09:59:53;;;;;;;20.00;12.10;;;;;;;3.13;98.15;99820.57;108681;1280;23068;-37
2023/02/03 12:15:59;;;;;;;9.00;5.90;;;;;;;2.77;100.00;99759.27;105996;1299;558188;-48
2023/02/03 12:18:56;;;;;;;8.80;5.90;;;;;;;2.76;100.00;99761.84;106403;1288;2364122;-49
2023/02/03 12:21:42;;;;;;;9.20;5.70;;;;;;;2.68;100.00;99757.71;108628;1288;22519;-50
2023/02/03 12:24:34;;;;;;;9.40;6.00;;;;;;;2.65;100.00;99758.66;106621;1289;22219;-41
2023/02/03 12:27:14;;;;;;;9.50;6.50;;;;;;;2.63;100.00;99753.64;107713;1290;22540;-41
